sensor_id;sensor_type;location;lat;lon;timestamp;temperature;humidity
60868;DHT22;46702;48.370;10.794;2023-09-08T00:01:52;12.90;99.90
60868;DHT22;46702;48.370;10.794;2023-09-08T00:04:17;12.70;99.90
60868;DHT22;46702;48.370;10.794;2023-09-08T00:06:45;12.80;99.90
60868;DHT22;46702;48.370;10.794;2023-09-08T00:09:11;12.50;99.90
60868;DHT22;46702;48.370;10.794;2023-09-08T00:11:36;12.40;99.90
60868;DHT22;46702;48.370;10.794;2023-09-08T00:14:02;12.30;99.90
60868;DHT22;46702;48.370;10.794;2023-09-08T00:16:29;12.30;99.90
60868;DHT22;46702;48.370;10.794;2023-09-08T00:18:55;12.50;99.90
60868;DHT22;46702;48.370;10.794;2023-09-08T00:21:21;12.50;99.90
60868;DHT22;46702;48.370;10.794;2023-09-08T00:23:46;12.50;99.90
60868;DHT22;46702;48.370;10.794;2023-09-08T00:26:12;12.50;99.90
60868;DHT22;46702;48.370;10.794;2023-09-08T00:28:37;12.60;99.90
60868;DHT22;46702;48.370;10.794;2023-09-08T00:31:03;12.60;99.90
60868;DHT22;46702;48.370;10.794;2023-09-08T00:33:30;12.70;99.90
60868;DHT22;46702;48.370;10.794;2023-09-08T00:35:55;12.70;99.90
60868;DHT22;46702;48.370;10.794;2023-09-08T00:38:23;12.80;99.90
60868;DHT22;46702;48.370;10.794;2023-09-08T00:40:48;12.80;99.90
60868;DHT22;46702;48.370;10.794;2023-09-08T00:43:14;12.80;99.90
60868;DHT22;46702;48.370;10.794;2023-09-08T00:45:42;12.80;99.90
60868;DHT22;46702;48.370;10.794;2023-09-08T00:48:08;12.50;99.90
60868;DHT22;46702;48.370;10.794;2023-09-08T00:50:35;12.50;99.90
60868;DHT22;46702;48.370;10.794;2023-09-08T00:53:05;12.40;99.90
60868;DHT22;46702;48.370;10.794;2023-09-08T00:55:32;12.30;99.90
60868;DHT22;46702;48.370;10.794;2023-09-08T00:57:58;12.30;99.90
60868;DHT22;46702;48.370;10.794;2023-09-08T01:00:27;12.20;99.90
60868;DHT22;46702;48.370;10.794;2023-09-08T01:02:53;12.10;99.90
60868;DHT22;46702;48.370;10.794;2023-09-08T01:05:19;12.20;99.90
60868;DHT22;46702;48.370;10.794;2023-09-08T01:07:46;12.10;99.90
60868;DHT22;46702;48.370;10.794;2023-09-08T01:10:13;12.10;99.90
60868;DHT22;46702;48.370;10.794;2023-09-08T01:23:48;12.40;99.90
60868;DHT22;46702;48.370;10.794;2023-09-08T01:26:21;12.40;99.90
60868;DHT22;46702;48.370;10.794;2023-09-08T01:29:09;12.40;99.90
60868;DHT22;46702;48.370;10.794;2023-09-08T01:31:36;12.50;99.90
60868;DHT22;46702;48.370;10.794;2023-09-08T01:34:06;12.40;99.90
60868;DHT22;46702;48.370;10.794;2023-09-08T01:36:34;12.40;99.90
60868;DHT22;46702;48.370;10.794;2023-09-08T01:39:03;12.40;99.90
60868;DHT22;46702;48.370;10.794;2023-09-08T01:41:29;12.40;99.90
60868;DHT22;46702;48.370;10.794;2023-09-08T01:43:56;12.40;99.90
60868;DHT22;46702;48.370;10.794;2023-09-08T01:46:23;12.40;99.90
60868;DHT22;46702;48.370;10.794;2023-09-08T01:48:49;12.30;99.90
60868;DHT22;46702;48.370;10.794;2023-09-08T01:51:14;12.30;99.90
60868;DHT22;46702;48.370;10.794;2023-09-08T01:53:40;12.20;99.90
60868;DHT22;46702;48.370;10.794;2023-09-08T01:56:06;12.20;99.90
60868;DHT22;46702;48.370;10.794;2023-09-08T01:58:32;12.20;99.90
60868;DHT22;46702;48.370;10.794;2023-09-08T02:00:59;12.20;99.90
60868;DHT22;46702;48.370;10.794;2023-09-08T02:03:31;12.10;99.90
60868;DHT22;46702;48.370;10.794;2023-09-08T02:05:57;12.10;99.90
60868;DHT22;46702;48.370;10.794;2023-09-08T02:08:23;12.10;99.90
60868;DHT22;46702;48.370;10.794;2023-09-08T02:10:48;12.10;99.90
60868;DHT22;46702;48.370;10.794;2023-09-08T02:13:14;12.10;99.90
60868;DHT22;46702;48.370;10.794;2023-09-08T02:15:40;12.10;99.90
60868;DHT22;46702;48.370;10.794;2023-09-08T02:18:06;12.00;99.90
60868;DHT22;46702;48.370;10.794;2023-09-08T02:20:33;12.10;99.90
60868;DHT22;46702;48.370;10.794;2023-09-08T02:23:04;12.10;99.90
60868;DHT22;46702;48.370;10.794;2023-09-08T02:25:30;12.00;99.90
60868;DHT22;46702;48.370;10.794;2023-09-08T02:27:56;11.90;99.90
60868;DHT22;46702;48.370;10.794;2023-09-08T02:30:21;11.80;99.90
60868;DHT22;46702;48.370;10.794;2023-09-08T02:32:47;11.70;99.90
60868;DHT22;46702;48.370;10.794;2023-09-08T02:35:13;11.60;99.90
60868;DHT22;46702;48.370;10.794;2023-09-08T02:37:39;11.50;99.90
60868;DHT22;46702;48.370;10.794;2023-09-08T02:40:06;11.10;99.90
60868;DHT22;46702;48.370;10.794;2023-09-08T02:42:32;10.80;99.90
60868;DHT22;46702;48.370;10.794;2023-09-08T02:44:58;10.70;99.90
60868;DHT22;46702;48.370;10.794;2023-09-08T02:47:23;10.80;99.90
60868;DHT22;46702;48.370;10.794;2023-09-08T02:49:49;10.90;99.90
60868;DHT22;46702;48.370;10.794;2023-09-08T02:52:15;11.00;99.90
60868;DHT22;46702;48.370;10.794;2023-09-08T02:54:40;11.10;99.90
60868;DHT22;46702;48.370;10.794;2023-09-08T02:57:06;11.10;99.90
60868;DHT22;46702;48.370;10.794;2023-09-08T02:59:32;11.10;99.90
60868;DHT22;46702;48.370;10.794;2023-09-08T03:01:59;11.20;99.90
60868;DHT22;46702;48.370;10.794;2023-09-08T03:04:28;11.20;99.90
60868;DHT22;46702;48.370;10.794;2023-09-08T03:06:53;11.20;99.90
60868;DHT22;46702;48.370;10.794;2023-09-08T03:09:19;11.30;99.90
60868;DHT22;46702;48.370;10.794;2023-09-08T03:11:45;11.10;99.90
60868;DHT22;46702;48.370;10.794;2023-09-08T03:14:11;10.90;99.90
60868;DHT22;46702;48.370;10.794;2023-09-08T03:16:36;10.90;99.90
60868;DHT22;46702;48.370;10.794;2023-09-08T03:19:02;10.80;99.90
60868;DHT22;46702;48.370;10.794;2023-09-08T03:21:28;10.70;99.90
60868;DHT22;46702;48.370;10.794;2023-09-08T03:23:53;10.70;99.90
60868;DHT22;46702;48.370;10.794;2023-09-08T03:26:19;10.80;99.90
60868;DHT22;46702;48.370;10.794;2023-09-08T03:28:45;10.90;99.90
60868;DHT22;46702;48.370;10.794;2023-09-08T03:31:11;10.90;99.90
60868;DHT22;46702;48.370;10.794;2023-09-08T03:33:36;10.90;99.90
60868;DHT22;46702;48.370;10.794;2023-09-08T03:36:02;11.00;99.90
60868;DHT22;46702;48.370;10.794;2023-09-08T03:38:28;11.00;99.90
60868;DHT22;46702;48.370;10.794;2023-09-08T03:40:54;11.00;99.90
60868;DHT22;46702;48.370;10.794;2023-09-08T03:43:19;10.80;99.90
60868;DHT22;46702;48.370;10.794;2023-09-08T03:45:46;10.70;99.90
60868;DHT22;46702;48.370;10.794;2023-09-08T03:48:18;10.60;99.90
60868;DHT22;46702;48.370;10.794;2023-09-08T03:50:44;10.60;99.90
60868;DHT22;46702;48.370;10.794;2023-09-08T03:53:22;10.60;99.90
60868;DHT22;46702;48.370;10.794;2023-09-08T03:55:51;10.60;99.90
60868;DHT22;46702;48.370;10.794;2023-09-08T03:58:22;10.60;99.90
60868;DHT22;46702;48.370;10.794;2023-09-08T04:00:52;10.70;99.90
60868;DHT22;46702;48.370;10.794;2023-09-08T04:03:21;10.70;99.90
60868;DHT22;46702;48.370;10.794;2023-09-08T04:05:57;10.60;99.90
60868;DHT22;46702;48.370;10.794;2023-09-08T04:08:23;10.60;99.90
60868;DHT22;46702;48.370;10.794;2023-09-08T04:10:53;10.50;99.90
60868;DHT22;46702;48.370;10.794;2023-09-08T04:13:31;10.40;99.90
60868;DHT22;46702;48.370;10.794;2023-09-08T04:15:58;10.30;99.90
60868;DHT22;46702;48.370;10.794;2023-09-08T04:18:29;10.40;99.90
60868;DHT22;46702;48.370;10.794;2023-09-08T04:21:17;10.30;99.90
60868;DHT22;46702;48.370;10.794;2023-09-08T04:23:57;10.40;99.90
60868;DHT22;46702;48.370;10.794;2023-09-08T04:26:29;10.30;99.90
60868;DHT22;46702;48.370;10.794;2023-09-08T04:29:02;10.40;99.90
60868;DHT22;46702;48.370;10.794;2023-09-08T04:31:27;10.40;99.90
60868;DHT22;46702;48.370;10.794;2023-09-08T04:33:54;10.50;99.90
60868;DHT22;46702;48.370;10.794;2023-09-08T04:36:19;10.50;99.90
60868;DHT22;46702;48.370;10.794;2023-09-08T04:38:45;10.50;99.90
60868;DHT22;46702;48.370;10.794;2023-09-08T04:41:11;10.60;99.90
60868;DHT22;46702;48.370;10.794;2023-09-08T04:43:36;10.60;99.90
60868;DHT22;46702;48.370;10.794;2023-09-08T04:46:02;10.60;99.90
60868;DHT22;46702;48.370;10.794;2023-09-08T04:48:29;10.70;99.90
60868;DHT22;46702;48.370;10.794;2023-09-08T04:50:54;10.60;99.90
60868;DHT22;46702;48.370;10.794;2023-09-08T04:53:20;10.60;99.90
60868;DHT22;46702;48.370;10.794;2023-09-08T04:55:46;10.60;99.90
60868;DHT22;46702;48.370;10.794;2023-09-08T04:58:11;10.60;99.90
60868;DHT22;46702;48.370;10.794;2023-09-08T05:00:40;10.60;99.90
60868;DHT22;46702;48.370;10.794;2023-09-08T05:03:05;10.60;99.90
60868;DHT22;46702;48.370;10.794;2023-09-08T05:05:31;10.70;99.90
60868;DHT22;46702;48.370;10.794;2023-09-08T05:07:57;10.70;99.90
60868;DHT22;46702;48.370;10.794;2023-09-08T05:10:23;10.70;99.90
60868;DHT22;46702;48.370;10.794;2023-09-08T05:12:48;10.60;99.90
60868;DHT22;46702;48.370;10.794;2023-09-08T05:15:15;10.40;99.90
60868;DHT22;46702;48.370;10.794;2023-09-08T05:17:42;10.30;99.90
60868;DHT22;46702;48.370;10.794;2023-09-08T05:20:08;10.40;99.90
60868;DHT22;46702;48.370;10.794;2023-09-08T05:22:34;10.50;99.90
60868;DHT22;46702;48.370;10.794;2023-09-08T05:25:00;10.60;99.90
60868;DHT22;46702;48.370;10.794;2023-09-08T05:27:26;10.60;99.90
60868;DHT22;46702;48.370;10.794;2023-09-08T05:29:51;10.80;99.90
60868;DHT22;46702;48.370;10.794;2023-09-08T05:32:17;10.80;99.90
60868;DHT22;46702;48.370;10.794;2023-09-08T05:34:42;10.90;99.90
60868;DHT22;46702;48.370;10.794;2023-09-08T05:37:08;11.00;99.90
60868;DHT22;46702;48.370;10.794;2023-09-08T05:39:34;10.90;99.90
60868;DHT22;46702;48.370;10.794;2023-09-08T05:41:59;10.90;99.90
60868;DHT22;46702;48.370;10.794;2023-09-08T05:44:25;10.80;99.90
60868;DHT22;46702;48.370;10.794;2023-09-08T05:46:51;10.90;99.90
60868;DHT22;46702;48.370;10.794;2023-09-08T05:49:16;11.00;99.90
60868;DHT22;46702;48.370;10.794;2023-09-08T05:51:43;11.10;99.90
60868;DHT22;46702;48.370;10.794;2023-09-08T05:54:09;11.10;99.90
60868;DHT22;46702;48.370;10.794;2023-09-08T05:56:36;11.20;99.90
60868;DHT22;46702;48.370;10.794;2023-09-08T05:59:02;11.40;99.90
60868;DHT22;46702;48.370;10.794;2023-09-08T06:01:28;11.50;99.90
60868;DHT22;46702;48.370;10.794;2023-09-08T06:03:54;11.60;99.90
60868;DHT22;46702;48.370;10.794;2023-09-08T06:06:20;11.80;99.90
60868;DHT22;46702;48.370;10.794;2023-09-08T06:08:47;11.90;99.90
60868;DHT22;46702;48.370;10.794;2023-09-08T06:11:12;12.00;99.90
60868;DHT22;46702;48.370;10.794;2023-09-08T06:13:38;12.10;99.90
60868;DHT22;46702;48.370;10.794;2023-09-08T06:16:03;12.10;99.90
60868;DHT22;46702;48.370;10.794;2023-09-08T06:18:29;12.20;99.90
60868;DHT22;46702;48.370;10.794;2023-09-08T06:20:59;12.30;99.90
60868;DHT22;46702;48.370;10.794;2023-09-08T06:23:24;12.30;99.90
60868;DHT22;46702;48.370;10.794;2023-09-08T06:25:50;12.50;99.90
60868;DHT22;46702;48.370;10.794;2023-09-08T06:28:16;12.60;99.90
60868;DHT22;46702;48.370;10.794;2023-09-08T06:30:41;12.70;99.90
60868;DHT22;46702;48.370;10.794;2023-09-08T06:33:10;13.00;99.90
60868;DHT22;46702;48.370;10.794;2023-09-08T06:35:35;13.00;99.90
60868;DHT22;46702;48.370;10.794;2023-09-08T06:38:01;13.10;99.90
60868;DHT22;46702;48.370;10.794;2023-09-08T06:40:29;13.10;99.90
60868;DHT22;46702;48.370;10.794;2023-09-08T06:42:55;13.10;99.90
60868;DHT22;46702;48.370;10.794;2023-09-08T06:45:20;13.30;99.90
60868;DHT22;46702;48.370;10.794;2023-09-08T06:47:46;13.60;99.90
60868;DHT22;46702;48.370;10.794;2023-09-08T06:50:12;13.80;99.90
60868;DHT22;46702;48.370;10.794;2023-09-08T06:52:37;13.90;99.90
60868;DHT22;46702;48.370;10.794;2023-09-08T06:55:03;14.00;99.90
60868;DHT22;46702;48.370;10.794;2023-09-08T06:57:30;14.10;99.90
60868;DHT22;46702;48.370;10.794;2023-09-08T06:59:55;14.30;99.90
60868;DHT22;46702;48.370;10.794;2023-09-08T07:02:21;14.40;99.90
60868;DHT22;46702;48.370;10.794;2023-09-08T07:04:47;14.60;99.90
60868;DHT22;46702;48.370;10.794;2023-09-08T07:07:12;14.70;99.90
60868;DHT22;46702;48.370;10.794;2023-09-08T07:09:38;14.90;99.90
60868;DHT22;46702;48.370;10.794;2023-09-08T07:12:04;15.00;99.90
60868;DHT22;46702;48.370;10.794;2023-09-08T07:14:30;15.20;99.90
60868;DHT22;46702;48.370;10.794;2023-09-08T07:16:56;15.30;99.90
60868;DHT22;46702;48.370;10.794;2023-09-08T07:19:22;15.50;99.90
60868;DHT22;46702;48.370;10.794;2023-09-08T07:21:47;15.60;99.90
60868;DHT22;46702;48.370;10.794;2023-09-08T07:24:13;15.80;99.90
60868;DHT22;46702;48.370;10.794;2023-09-08T07:26:38;16.00;99.90
60868;DHT22;46702;48.370;10.794;2023-09-08T07:29:04;16.10;99.90
60868;DHT22;46702;48.370;10.794;2023-09-08T07:31:29;16.40;99.90
60868;DHT22;46702;48.370;10.794;2023-09-08T07:33:55;16.60;99.90
60868;DHT22;46702;48.370;10.794;2023-09-08T07:36:20;16.70;99.90
60868;DHT22;46702;48.370;10.794;2023-09-08T07:38:46;16.80;99.90
60868;DHT22;46702;48.370;10.794;2023-09-08T07:41:12;17.00;99.90
60868;DHT22;46702;48.370;10.794;2023-09-08T07:43:38;17.10;99.90
60868;DHT22;46702;48.370;10.794;2023-09-08T07:46:06;17.20;99.90
60868;DHT22;46702;48.370;10.794;2023-09-08T07:48:32;17.40;99.90
60868;DHT22;46702;48.370;10.794;2023-09-08T07:50:58;17.50;99.90
60868;DHT22;46702;48.370;10.794;2023-09-08T07:53:28;17.70;99.90
60868;DHT22;46702;48.370;10.794;2023-09-08T07:55:53;17.80;99.90
60868;DHT22;46702;48.370;10.794;2023-09-08T07:58:19;17.90;99.90
60868;DHT22;46702;48.370;10.794;2023-09-08T08:00:45;18.10;99.90
60868;DHT22;46702;48.370;10.794;2023-09-08T08:03:10;18.20;99.90
60868;DHT22;46702;48.370;10.794;2023-09-08T08:05:36;18.40;99.90
60868;DHT22;46702;48.370;10.794;2023-09-08T08:08:01;18.50;99.90
60868;DHT22;46702;48.370;10.794;2023-09-08T08:10:27;18.60;99.90
60868;DHT22;46702;48.370;10.794;2023-09-08T08:12:53;18.80;99.90
60868;DHT22;46702;48.370;10.794;2023-09-08T08:15:20;18.90;99.90
60868;DHT22;46702;48.370;10.794;2023-09-08T08:17:48;19.10;99.90
60868;DHT22;46702;48.370;10.794;2023-09-08T08:20:14;19.10;99.90
60868;DHT22;46702;48.370;10.794;2023-09-08T08:22:46;19.40;99.90
60868;DHT22;46702;48.370;10.794;2023-09-08T08:25:12;19.50;99.90
60868;DHT22;46702;48.370;10.794;2023-09-08T08:27:41;19.50;99.90
60868;DHT22;46702;48.370;10.794;2023-09-08T08:30:07;19.70;99.90
60868;DHT22;46702;48.370;10.794;2023-09-08T08:32:33;19.70;99.90
60868;DHT22;46702;48.370;10.794;2023-09-08T08:34:59;19.70;99.90
60868;DHT22;46702;48.370;10.794;2023-09-08T08:37:25;20.00;99.90
60868;DHT22;46702;48.370;10.794;2023-09-08T08:39:50;20.00;99.90
60868;DHT22;46702;48.370;10.794;2023-09-08T08:42:16;20.10;99.90
60868;DHT22;46702;48.370;10.794;2023-09-08T08:44:42;20.30;99.90
60868;DHT22;46702;48.370;10.794;2023-09-08T08:47:10;20.40;99.90
60868;DHT22;46702;48.370;10.794;2023-09-08T08:49:36;20.50;99.90
60868;DHT22;46702;48.370;10.794;2023-09-08T08:52:04;20.60;99.90
60868;DHT22;46702;48.370;10.794;2023-09-08T08:54:39;20.70;99.90
60868;DHT22;46702;48.370;10.794;2023-09-08T08:57:06;20.70;99.90
60868;DHT22;46702;48.370;10.794;2023-09-08T08:59:32;20.90;99.90
60868;DHT22;46702;48.370;10.794;2023-09-08T09:01:58;20.80;99.90
60868;DHT22;46702;48.370;10.794;2023-09-08T09:04:25;21.00;99.90
60868;DHT22;46702;48.370;10.794;2023-09-08T09:06:52;21.10;99.90
60868;DHT22;46702;48.370;10.794;2023-09-08T09:09:18;21.00;99.90
60868;DHT22;46702;48.370;10.794;2023-09-08T09:11:44;21.10;99.90
60868;DHT22;46702;48.370;10.794;2023-09-08T09:14:09;21.20;99.90
60868;DHT22;46702;48.370;10.794;2023-09-08T09:16:41;21.30;99.90
60868;DHT22;46702;48.370;10.794;2023-09-08T09:19:08;21.30;99.90
60868;DHT22;46702;48.370;10.794;2023-09-08T09:21:45;21.50;99.90
60868;DHT22;46702;48.370;10.794;2023-09-08T09:24:16;21.60;99.90
60868;DHT22;46702;48.370;10.794;2023-09-08T09:26:43;21.70;99.90
60868;DHT22;46702;48.370;10.794;2023-09-08T09:29:13;21.70;99.90
60868;DHT22;46702;48.370;10.794;2023-09-08T09:32:03;21.70;99.90
60868;DHT22;46702;48.370;10.794;2023-09-08T09:34:29;21.90;99.90
60868;DHT22;46702;48.370;10.794;2023-09-08T09:36:55;21.90;99.90
60868;DHT22;46702;48.370;10.794;2023-09-08T09:39:22;22.00;99.90
60868;DHT22;46702;48.370;10.794;2023-09-08T09:41:49;22.10;99.90
60868;DHT22;46702;48.370;10.794;2023-09-08T09:44:18;22.20;99.90
60868;DHT22;46702;48.370;10.794;2023-09-08T09:46:47;22.20;99.90
60868;DHT22;46702;48.370;10.794;2023-09-08T09:49:14;22.30;99.90
60868;DHT22;46702;48.370;10.794;2023-09-08T09:51:42;22.50;99.90
60868;DHT22;46702;48.370;10.794;2023-09-08T09:54:08;22.60;99.90
60868;DHT22;46702;48.370;10.794;2023-09-08T09:56:34;22.70;99.90
60868;DHT22;46702;48.370;10.794;2023-09-08T09:59:03;22.70;99.90
60868;DHT22;46702;48.370;10.794;2023-09-08T10:01:29;22.80;99.90
60868;DHT22;46702;48.370;10.794;2023-09-08T10:03:55;22.90;99.90
60868;DHT22;46702;48.370;10.794;2023-09-08T10:06:21;23.10;99.90
60868;DHT22;46702;48.370;10.794;2023-09-08T10:08:48;23.10;99.90
60868;DHT22;46702;48.370;10.794;2023-09-08T10:11:20;22.90;99.90
60868;DHT22;46702;48.370;10.794;2023-09-08T10:13:46;23.00;99.90
60868;DHT22;46702;48.370;10.794;2023-09-08T10:16:16;23.30;99.90
60868;DHT22;46702;48.370;10.794;2023-09-08T10:18:46;23.40;99.90
60868;DHT22;46702;48.370;10.794;2023-09-08T10:21:13;23.60;99.90
60868;DHT22;46702;48.370;10.794;2023-09-08T10:23:42;23.50;99.90
60868;DHT22;46702;48.370;10.794;2023-09-08T10:26:10;23.70;99.90
60868;DHT22;46702;48.370;10.794;2023-09-08T10:28:37;23.80;99.90
60868;DHT22;46702;48.370;10.794;2023-09-08T10:31:04;24.00;99.90
60868;DHT22;46702;48.370;10.794;2023-09-08T10:33:31;24.00;99.90
60868;DHT22;46702;48.370;10.794;2023-09-08T10:35:57;24.00;99.90
60868;DHT22;46702;48.370;10.794;2023-09-08T10:38:32;24.10;99.90
60868;DHT22;46702;48.370;10.794;2023-09-08T10:41:25;24.00;99.90
60868;DHT22;46702;48.370;10.794;2023-09-08T10:43:55;24.50;99.90
60868;DHT22;46702;48.370;10.794;2023-09-08T10:46:31;24.70;99.90
60868;DHT22;46702;48.370;10.794;2023-09-08T10:49:05;24.90;99.90
60868;DHT22;46702;48.370;10.794;2023-09-08T10:51:33;25.10;99.90
60868;DHT22;46702;48.370;10.794;2023-09-08T10:53:58;25.00;99.90
60868;DHT22;46702;48.370;10.794;2023-09-08T10:56:53;24.60;99.90
60868;DHT22;46702;48.370;10.794;2023-09-08T10:59:21;24.40;99.90
60868;DHT22;46702;48.370;10.794;2023-09-08T11:01:47;24.20;99.90
60868;DHT22;46702;48.370;10.794;2023-09-08T11:04:13;24.40;99.90
60868;DHT22;46702;48.370;10.794;2023-09-08T11:06:39;24.40;99.90
60868;DHT22;46702;48.370;10.794;2023-09-08T11:09:08;24.50;99.90
60868;DHT22;46702;48.370;10.794;2023-09-08T11:11:35;24.40;99.90
60868;DHT22;46702;48.370;10.794;2023-09-08T11:14:02;24.50;99.90
60868;DHT22;46702;48.370;10.794;2023-09-08T11:16:28;24.50;99.90
60868;DHT22;46702;48.370;10.794;2023-09-08T11:18:57;24.70;99.90
60868;DHT22;46702;48.370;10.794;2023-09-08T11:21:22;24.70;99.90
60868;DHT22;46702;48.370;10.794;2023-09-08T11:23:48;24.70;99.90
60868;DHT22;46702;48.370;10.794;2023-09-08T11:26:13;24.80;99.90
60868;DHT22;46702;48.370;10.794;2023-09-08T11:28:41;24.90;99.90
60868;DHT22;46702;48.370;10.794;2023-09-08T11:31:08;24.90;99.90
60868;DHT22;46702;48.370;10.794;2023-09-08T11:33:36;25.10;99.90
60868;DHT22;46702;48.370;10.794;2023-09-08T11:36:12;25.10;99.90
60868;DHT22;46702;48.370;10.794;2023-09-08T11:38:43;25.40;99.90
60868;DHT22;46702;48.370;10.794;2023-09-08T11:41:10;25.30;99.90
60868;DHT22;46702;48.370;10.794;2023-09-08T11:43:36;25.30;99.90
60868;DHT22;46702;48.370;10.794;2023-09-08T11:46:02;25.30;99.90
60868;DHT22;46702;48.370;10.794;2023-09-08T11:48:28;25.40;99.90
60868;DHT22;46702;48.370;10.794;2023-09-08T11:50:53;25.30;99.90
60868;DHT22;46702;48.370;10.794;2023-09-08T11:53:20;25.20;99.90
60868;DHT22;46702;48.370;10.794;2023-09-08T11:55:47;25.30;99.90
60868;DHT22;46702;48.370;10.794;2023-09-08T11:58:13;25.40;99.90
60868;DHT22;46702;48.370;10.794;2023-09-08T12:00:39;25.30;99.90
60868;DHT22;46702;48.370;10.794;2023-09-08T12:03:13;25.20;99.90
60868;DHT22;46702;48.370;10.794;2023-09-08T12:05:41;25.10;99.90
60868;DHT22;46702;48.370;10.794;2023-09-08T12:08:07;25.20;99.90
60868;DHT22;46702;48.370;10.794;2023-09-08T12:10:42;25.20;99.90
60868;DHT22;46702;48.370;10.794;2023-09-08T12:13:08;25.20;99.90
60868;DHT22;46702;48.370;10.794;2023-09-08T12:15:39;25.40;99.90
60868;DHT22;46702;48.370;10.794;2023-09-08T12:18:07;25.60;99.90
60868;DHT22;46702;48.370;10.794;2023-09-08T12:20:35;25.50;99.90
60868;DHT22;46702;48.370;10.794;2023-09-08T12:23:02;25.50;99.90
60868;DHT22;46702;48.370;10.794;2023-09-08T12:25:29;25.50;99.90
60868;DHT22;46702;48.370;10.794;2023-09-08T12:27:57;25.80;99.90
60868;DHT22;46702;48.370;10.794;2023-09-08T12:30:23;25.80;99.90
60868;DHT22;46702;48.370;10.794;2023-09-08T12:32:59;25.90;99.90
60868;DHT22;46702;48.370;10.794;2023-09-08T12:35:26;25.80;99.90
60868;DHT22;46702;48.370;10.794;2023-09-08T12:38:05;25.80;99.90
60868;DHT22;46702;48.370;10.794;2023-09-08T12:40:34;25.70;99.90
60868;DHT22;46702;48.370;10.794;2023-09-08T12:43:00;25.80;99.90
60868;DHT22;46702;48.370;10.794;2023-09-08T12:45:26;25.80;99.90
60868;DHT22;46702;48.370;10.794;2023-09-08T12:47:53;25.80;99.90
60868;DHT22;46702;48.370;10.794;2023-09-08T12:50:20;25.80;99.90
60868;DHT22;46702;48.370;10.794;2023-09-08T12:52:46;25.90;99.90
60868;DHT22;46702;48.370;10.794;2023-09-08T12:55:12;26.00;99.90
60868;DHT22;46702;48.370;10.794;2023-09-08T12:57:38;26.00;99.90
60868;DHT22;46702;48.370;10.794;2023-09-08T13:00:05;26.30;99.90
60868;DHT22;46702;48.370;10.794;2023-09-08T13:02:31;26.40;99.90
60868;DHT22;46702;48.370;10.794;2023-09-08T13:04:57;26.40;99.90
60868;DHT22;46702;48.370;10.794;2023-09-08T13:07:23;26.30;99.90
60868;DHT22;46702;48.370;10.794;2023-09-08T13:09:49;26.20;99.90
60868;DHT22;46702;48.370;10.794;2023-09-08T13:12:16;26.20;99.90
60868;DHT22;46702;48.370;10.794;2023-09-08T13:14:41;26.20;99.90
60868;DHT22;46702;48.370;10.794;2023-09-08T13:17:10;26.20;99.90
60868;DHT22;46702;48.370;10.794;2023-09-08T13:19:35;26.20;99.90
60868;DHT22;46702;48.370;10.794;2023-09-08T13:22:03;26.20;99.90
60868;DHT22;46702;48.370;10.794;2023-09-08T13:24:29;26.20;99.90
60868;DHT22;46702;48.370;10.794;2023-09-08T13:26:54;26.30;99.90
60868;DHT22;46702;48.370;10.794;2023-09-08T13:29:20;26.30;99.90
60868;DHT22;46702;48.370;10.794;2023-09-08T13:31:45;26.30;99.90
60868;DHT22;46702;48.370;10.794;2023-09-08T13:34:11;26.40;99.90
60868;DHT22;46702;48.370;10.794;2023-09-08T13:36:37;26.50;99.90
60868;DHT22;46702;48.370;10.794;2023-09-08T13:39:02;26.40;99.90
60868;DHT22;46702;48.370;10.794;2023-09-08T13:41:51;26.40;99.90
60868;DHT22;46702;48.370;10.794;2023-09-08T13:44:23;26.50;99.90
60868;DHT22;46702;48.370;10.794;2023-09-08T13:46:50;26.60;99.90
60868;DHT22;46702;48.370;10.794;2023-09-08T13:49:15;26.60;99.90
60868;DHT22;46702;48.370;10.794;2023-09-08T13:51:42;26.50;99.90
60868;DHT22;46702;48.370;10.794;2023-09-08T13:54:09;26.40;99.90
60868;DHT22;46702;48.370;10.794;2023-09-08T13:56:35;26.50;99.90
60868;DHT22;46702;48.370;10.794;2023-09-08T13:59:03;26.60;99.90
60868;DHT22;46702;48.370;10.794;2023-09-08T14:01:29;26.60;99.90
60868;DHT22;46702;48.370;10.794;2023-09-08T14:03:57;26.60;99.90
60868;DHT22;46702;48.370;10.794;2023-09-08T14:06:23;26.40;99.90
60868;DHT22;46702;48.370;10.794;2023-09-08T14:08:52;26.50;99.90
60868;DHT22;46702;48.370;10.794;2023-09-08T14:11:18;26.40;99.90
60868;DHT22;46702;48.370;10.794;2023-09-08T14:13:43;26.50;99.90
60868;DHT22;46702;48.370;10.794;2023-09-08T14:16:10;26.60;99.90
60868;DHT22;46702;48.370;10.794;2023-09-08T14:18:36;26.70;99.90
60868;DHT22;46702;48.370;10.794;2023-09-08T14:21:02;26.70;99.90
60868;DHT22;46702;48.370;10.794;2023-09-08T14:23:28;26.70;99.90
60868;DHT22;46702;48.370;10.794;2023-09-08T14:25:54;26.70;99.90
60868;DHT22;46702;48.370;10.794;2023-09-08T14:28:20;26.60;99.90
60868;DHT22;46702;48.370;10.794;2023-09-08T14:30:46;26.60;99.90
60868;DHT22;46702;48.370;10.794;2023-09-08T14:33:12;26.60;99.90
60868;DHT22;46702;48.370;10.794;2023-09-08T14:35:42;26.40;99.90
60868;DHT22;46702;48.370;10.794;2023-09-08T14:38:08;26.30;99.90
60868;DHT22;46702;48.370;10.794;2023-09-08T14:40:34;26.40;99.90
60868;DHT22;46702;48.370;10.794;2023-09-08T14:43:00;26.30;99.90
60868;DHT22;46702;48.370;10.794;2023-09-08T14:45:25;26.30;99.90
60868;DHT22;46702;48.370;10.794;2023-09-08T14:47:53;26.30;99.90
60868;DHT22;46702;48.370;10.794;2023-09-08T14:50:19;26.30;99.90
60868;DHT22;46702;48.370;10.794;2023-09-08T14:52:44;26.30;99.90
60868;DHT22;46702;48.370;10.794;2023-09-08T14:55:10;26.20;99.90
60868;DHT22;46702;48.370;10.794;2023-09-08T14:57:36;26.20;99.90
60868;DHT22;46702;48.370;10.794;2023-09-08T15:00:03;26.20;99.90
60868;DHT22;46702;48.370;10.794;2023-09-08T15:02:30;26.20;99.90
60868;DHT22;46702;48.370;10.794;2023-09-08T15:04:56;26.20;99.90
60868;DHT22;46702;48.370;10.794;2023-09-08T15:07:22;26.20;99.90
60868;DHT22;46702;48.370;10.794;2023-09-08T15:09:47;26.20;99.90
60868;DHT22;46702;48.370;10.794;2023-09-08T15:12:13;26.10;99.90
60868;DHT22;46702;48.370;10.794;2023-09-08T15:14:39;26.10;99.90
60868;DHT22;46702;48.370;10.794;2023-09-08T15:17:05;26.10;99.90
60868;DHT22;46702;48.370;10.794;2023-09-08T15:19:32;26.00;99.90
60868;DHT22;46702;48.370;10.794;2023-09-08T15:21:58;26.00;99.90
60868;DHT22;46702;48.370;10.794;2023-09-08T15:24:24;26.10;99.90
60868;DHT22;46702;48.370;10.794;2023-09-08T15:26:49;26.00;99.90